sensor_id;sensor_type;location;lat;lon;timestamp;P1;durP1;ratioP1;P2;durP2;ratioP2
26407;SDS011;14583;43.604;1.364;2023-07-13T00:00:04;9.25;;;6.28;;
26407;SDS011;14583;43.604;1.364;2023-07-13T00:02:35;6.13;;;3.63;;
26407;SDS011;14583;43.604;1.364;2023-07-13T00:05:01;4.28;;;2.65;;
26407;SDS011;14583;43.604;1.364;2023-07-13T00:07:27;4.80;;;2.78;;
26407;SDS011;14583;43.604;1.364;2023-07-13T00:09:53;4.22;;;2.65;;
26407;SDS011;14583;43.604;1.364;2023-07-13T00:12:29;5.40;;;3.03;;
26407;SDS011;14583;43.604;1.364;2023-07-13T00:15:00;5.88;;;3.13;;
26407;SDS011;14583;43.604;1.364;2023-07-13T00:17:28;7.70;;;2.88;;
26407;SDS011;14583;43.604;1.364;2023-07-13T00:19:55;4.82;;;2.83;;
26407;SDS011;14583;43.604;1.364;2023-07-13T00:22:21;5.55;;;2.90;;
26407;SDS011;14583;43.604;1.364;2023-07-13T00:24:49;4.00;;;2.63;;
26407;SDS011;14583;43.604;1.364;2023-07-13T00:27:16;4.00;;;2.55;;
26407;SDS011;14583;43.604;1.364;2023-07-13T00:29:42;6.80;;;2.88;;
26407;SDS011;14583;43.604;1.364;2023-07-13T00:32:08;5.88;;;2.72;;
26407;SDS011;14583;43.604;1.364;2023-07-13T00:34:35;6.38;;;3.70;;
26407;SDS011;14583;43.604;1.364;2023-07-13T00:37:01;4.57;;;2.90;;
26407;SDS011;14583;43.604;1.364;2023-07-13T00:39:27;6.30;;;3.83;;
26407;SDS011;14583;43.604;1.364;2023-07-13T00:41:52;5.43;;;3.00;;
26407;SDS011;14583;43.604;1.364;2023-07-13T00:44:18;9.55;;;2.88;;
26407;SDS011;14583;43.604;1.364;2023-07-13T00:46:48;3.67;;;2.35;;
26407;SDS011;14583;43.604;1.364;2023-07-13T00:49:19;4.32;;;2.47;;
26407;SDS011;14583;43.604;1.364;2023-07-13T00:51:54;6.45;;;1.90;;
26407;SDS011;14583;43.604;1.364;2023-07-13T00:54:41;5.07;;;2.40;;
26407;SDS011;14583;43.604;1.364;2023-07-13T00:57:11;3.83;;;2.00;;
26407;SDS011;14583;43.604;1.364;2023-07-13T00:59:41;4.00;;;2.15;;
26407;SDS011;14583;43.604;1.364;2023-07-13T01:02:10;5.80;;;2.40;;
26407;SDS011;14583;43.604;1.364;2023-07-13T01:04:37;3.88;;;2.42;;
26407;SDS011;14583;43.604;1.364;2023-07-13T01:07:03;7.32;;;6.32;;
26407;SDS011;14583;43.604;1.364;2023-07-13T01:09:30;4.65;;;2.63;;
26407;SDS011;14583;43.604;1.364;2023-07-13T01:11:55;6.72;;;3.00;;
26407;SDS011;14583;43.604;1.364;2023-07-13T01:14:21;5.60;;;2.65;;
26407;SDS011;14583;43.604;1.364;2023-07-13T01:16:47;5.30;;;2.33;;
26407;SDS011;14583;43.604;1.364;2023-07-13T01:22:06;5.45;;;2.30;;
26407;SDS011;14583;43.604;1.364;2023-07-13T01:24:37;5.63;;;2.30;;
26407;SDS011;14583;43.604;1.364;2023-07-13T01:27:04;4.78;;;2.25;;
26407;SDS011;14583;43.604;1.364;2023-07-13T01:29:31;3.65;;;2.20;;
26407;SDS011;14583;43.604;1.364;2023-07-13T01:31:59;4.70;;;1.92;;
26407;SDS011;14583;43.604;1.364;2023-07-13T01:34:25;6.53;;;2.40;;
26407;SDS011;14583;43.604;1.364;2023-07-13T01:36:51;3.88;;;2.40;;
26407;SDS011;14583;43.604;1.364;2023-07-13T01:39:19;5.22;;;1.88;;
26407;SDS011;14583;43.604;1.364;2023-07-13T01:41:48;4.70;;;2.30;;
26407;SDS011;14583;43.604;1.364;2023-07-13T01:44:14;6.10;;;2.15;;
26407;SDS011;14583;43.604;1.364;2023-07-13T01:46:40;5.43;;;2.20;;
26407;SDS011;14583;43.604;1.364;2023-07-13T01:49:06;5.30;;;2.00;;
26407;SDS011;14583;43.604;1.364;2023-07-13T01:51:31;5.80;;;2.42;;
26407;SDS011;14583;43.604;1.364;2023-07-13T01:53:57;10.85;;;2.50;;
26407;SDS011;14583;43.604;1.364;2023-07-13T01:56:23;7.13;;;2.40;;
26407;SDS011;14583;43.604;1.364;2023-07-13T01:58:48;7.15;;;2.38;;
26407;SDS011;14583;43.604;1.364;2023-07-13T02:01:14;8.43;;;2.40;;
26407;SDS011;14583;43.604;1.364;2023-07-13T02:03:40;6.18;;;2.35;;
26407;SDS011;14583;43.604;1.364;2023-07-13T02:06:05;8.52;;;2.00;;
26407;SDS011;14583;43.604;1.364;2023-07-13T02:08:34;6.43;;;2.58;;
26407;SDS011;14583;43.604;1.364;2023-07-13T02:11:00;9.13;;;2.28;;
26407;SDS011;14583;43.604;1.364;2023-07-13T02:13:27;6.60;;;2.38;;
26407;SDS011;14583;43.604;1.364;2023-07-13T02:15:53;7.00;;;2.40;;
26407;SDS011;14583;43.604;1.364;2023-07-13T02:18:19;5.20;;;2.10;;
26407;SDS011;14583;43.604;1.364;2023-07-13T02:20:44;5.93;;;2.58;;
26407;SDS011;14583;43.604;1.364;2023-07-13T02:23:10;5.28;;;2.33;;
26407;SDS011;14583;43.604;1.364;2023-07-13T02:25:37;5.90;;;2.15;;
26407;SDS011;14583;43.604;1.364;2023-07-13T02:28:02;8.68;;;2.30;;
26407;SDS011;14583;43.604;1.364;2023-07-13T02:30:28;6.63;;;2.20;;
26407;SDS011;14583;43.604;1.364;2023-07-13T02:32:55;6.57;;;2.45;;
26407;SDS011;14583;43.604;1.364;2023-07-13T02:35:21;10.43;;;2.13;;
26407;SDS011;14583;43.604;1.364;2023-07-13T02:37:47;6.70;;;1.95;;
26407;SDS011;14583;43.604;1.364;2023-07-13T02:40:13;7.03;;;2.20;;
26407;SDS011;14583;43.604;1.364;2023-07-13T02:42:39;6.88;;;2.10;;
26407;SDS011;14583;43.604;1.364;2023-07-13T02:45:05;7.20;;;2.17;;
26407;SDS011;14583;43.604;1.364;2023-07-13T02:47:33;9.00;;;1.88;;
26407;SDS011;14583;43.604;1.364;2023-07-13T02:50:00;7.80;;;2.25;;
26407;SDS011;14583;43.604;1.364;2023-07-13T02:52:27;4.68;;;1.70;;
26407;SDS011;14583;43.604;1.364;2023-07-13T02:54:52;6.68;;;2.00;;
26407;SDS011;14583;43.604;1.364;2023-07-13T02:57:18;4.35;;;1.60;;
26407;SDS011;14583;43.604;1.364;2023-07-13T02:59:44;6.30;;;2.10;;
26407;SDS011;14583;43.604;1.364;2023-07-13T03:02:09;9.65;;;2.95;;
26407;SDS011;14583;43.604;1.364;2023-07-13T03:04:36;8.02;;;2.35;;
26407;SDS011;14583;43.604;1.364;2023-07-13T03:07:02;3.58;;;1.80;;
26407;SDS011;14583;43.604;1.364;2023-07-13T03:09:29;9.38;;;2.22;;
26407;SDS011;14583;43.604;1.364;2023-07-13T03:11:55;7.20;;;2.10;;
26407;SDS011;14583;43.604;1.364;2023-07-13T03:14:24;9.23;;;2.17;;
26407;SDS011;14583;43.604;1.364;2023-07-13T03:16:50;7.15;;;2.20;;
26407;SDS011;14583;43.604;1.364;2023-07-13T03:19:17;6.22;;;2.30;;
26407;SDS011;14583;43.604;1.364;2023-07-13T03:21:43;7.97;;;2.22;;
26407;SDS011;14583;43.604;1.364;2023-07-13T03:24:08;7.95;;;2.22;;
26407;SDS011;14583;43.604;1.364;2023-07-13T03:26:35;8.48;;;2.10;;
26407;SDS011;14583;43.604;1.364;2023-07-13T03:29:00;8.45;;;2.33;;
26407;SDS011;14583;43.604;1.364;2023-07-13T03:31:27;7.07;;;2.10;;
26407;SDS011;14583;43.604;1.364;2023-07-13T03:33:55;6.80;;;1.90;;
26407;SDS011;14583;43.604;1.364;2023-07-13T03:36:22;9.57;;;2.33;;
26407;SDS011;14583;43.604;1.364;2023-07-13T03:38:51;7.13;;;2.30;;
26407;SDS011;14583;43.604;1.364;2023-07-13T03:41:19;7.80;;;2.28;;
26407;SDS011;14583;43.604;1.364;2023-07-13T03:43:46;7.57;;;2.13;;
26407;SDS011;14583;43.604;1.364;2023-07-13T03:46:13;7.68;;;1.92;;
26407;SDS011;14583;43.604;1.364;2023-07-13T03:48:39;7.13;;;1.90;;
26407;SDS011;14583;43.604;1.364;2023-07-13T03:51:07;6.47;;;2.25;;
26407;SDS011;14583;43.604;1.364;2023-07-13T03:53:34;6.05;;;2.20;;
26407;SDS011;14583;43.604;1.364;2023-07-13T03:56:04;11.75;;;2.58;;
26407;SDS011;14583;43.604;1.364;2023-07-13T03:58:31;4.47;;;1.77;;
26407;SDS011;14583;43.604;1.364;2023-07-13T04:00:59;5.20;;;1.70;;
26407;SDS011;14583;43.604;1.364;2023-07-13T04:03:26;9.05;;;2.05;;
26407;SDS011;14583;43.604;1.364;2023-07-13T04:05:57;7.43;;;1.98;;
26407;SDS011;14583;43.604;1.364;2023-07-13T04:08:28;7.07;;;2.20;;
26407;SDS011;14583;43.604;1.364;2023-07-13T04:10:58;6.80;;;2.13;;
26407;SDS011;14583;43.604;1.364;2023-07-13T04:13:24;6.72;;;3.42;;
26407;SDS011;14583;43.604;1.364;2023-07-13T04:15:50;6.70;;;2.47;;
26407;SDS011;14583;43.604;1.364;2023-07-13T04:18:17;10.10;;;3.60;;
26407;SDS011;14583;43.604;1.364;2023-07-13T04:20:44;4.68;;;2.25;;
26407;SDS011;14583;43.604;1.364;2023-07-13T04:23:11;6.15;;;2.25;;
26407;SDS011;14583;43.604;1.364;2023-07-13T04:25:36;7.55;;;2.65;;
26407;SDS011;14583;43.604;1.364;2023-07-13T04:28:03;7.50;;;2.10;;
26407;SDS011;14583;43.604;1.364;2023-07-13T04:30:29;3.10;;;1.58;;
26407;SDS011;14583;43.604;1.364;2023-07-13T04:32:55;9.25;;;2.35;;
26407;SDS011;14583;43.604;1.364;2023-07-13T04:35:21;9.50;;;2.30;;
26407;SDS011;14583;43.604;1.364;2023-07-13T04:37:47;11.32;;;2.40;;
26407;SDS011;14583;43.604;1.364;2023-07-13T04:40:15;8.00;;;2.20;;
26407;SDS011;14583;43.604;1.364;2023-07-13T04:42:45;8.45;;;2.17;;
26407;SDS011;14583;43.604;1.364;2023-07-13T04:45:11;8.43;;;1.88;;
26407;SDS011;14583;43.604;1.364;2023-07-13T04:47:38;16.38;;;2.10;;
26407;SDS011;14583;43.604;1.364;2023-07-13T04:50:04;7.75;;;2.28;;
26407;SDS011;14583;43.604;1.364;2023-07-13T04:52:30;7.97;;;1.95;;
26407;SDS011;14583;43.604;1.364;2023-07-13T04:54:55;6.40;;;1.98;;
26407;SDS011;14583;43.604;1.364;2023-07-13T04:57:21;10.13;;;2.30;;
26407;SDS011;14583;43.604;1.364;2023-07-13T04:59:47;7.70;;;2.13;;
26407;SDS011;14583;43.604;1.364;2023-07-13T05:02:13;9.57;;;2.08;;
26407;SDS011;14583;43.604;1.364;2023-07-13T05:04:38;10.00;;;2.33;;
26407;SDS011;14583;43.604;1.364;2023-07-13T05:07:04;9.70;;;2.17;;
26407;SDS011;14583;43.604;1.364;2023-07-13T05:09:31;6.20;;;2.25;;
26407;SDS011;14583;43.604;1.364;2023-07-13T05:11:56;9.82;;;5.60;;
26407;SDS011;14583;43.604;1.364;2023-07-13T05:14:22;13.80;;;3.15;;
26407;SDS011;14583;43.604;1.364;2023-07-13T05:16:48;8.43;;;2.50;;
26407;SDS011;14583;43.604;1.364;2023-07-13T05:19:13;5.95;;;2.30;;
26407;SDS011;14583;43.604;1.364;2023-07-13T05:21:39;6.90;;;2.10;;
26407;SDS011;14583;43.604;1.364;2023-07-13T05:24:06;6.90;;;1.80;;
26407;SDS011;14583;43.604;1.364;2023-07-13T05:26:31;7.00;;;1.80;;
26407;SDS011;14583;43.604;1.364;2023-07-13T05:28:57;7.28;;;2.05;;
26407;SDS011;14583;43.604;1.364;2023-07-13T05:31:23;10.00;;;1.95;;
26407;SDS011;14583;43.604;1.364;2023-07-13T05:33:48;8.38;;;2.15;;
26407;SDS011;14583;43.604;1.364;2023-07-13T05:36:14;6.47;;;2.00;;
26407;SDS011;14583;43.604;1.364;2023-07-13T05:38:39;6.72;;;1.70;;
26407;SDS011;14583;43.604;1.364;2023-07-13T05:41:05;7.13;;;1.73;;
26407;SDS011;14583;43.604;1.364;2023-07-13T05:43:31;7.25;;;1.88;;
26407;SDS011;14583;43.604;1.364;2023-07-13T05:46:00;5.45;;;2.08;;
26407;SDS011;14583;43.604;1.364;2023-07-13T05:48:26;5.85;;;1.90;;
26407;SDS011;14583;43.604;1.364;2023-07-13T05:50:52;9.13;;;3.42;;
26407;SDS011;14583;43.604;1.364;2023-07-13T05:53:17;8.85;;;4.50;;
26407;SDS011;14583;43.604;1.364;2023-07-13T05:55:43;7.05;;;2.50;;
26407;SDS011;14583;43.604;1.364;2023-07-13T05:58:13;9.07;;;2.10;;
26407;SDS011;14583;43.604;1.364;2023-07-13T06:00:39;6.35;;;2.13;;
26407;SDS011;14583;43.604;1.364;2023-07-13T06:03:05;6.30;;;2.38;;
26407;SDS011;14583;43.604;1.364;2023-07-13T06:05:31;6.10;;;1.75;;
26407;SDS011;14583;43.604;1.364;2023-07-13T06:07:58;5.10;;;1.70;;
26407;SDS011;14583;43.604;1.364;2023-07-13T06:10:24;4.30;;;1.40;;
26407;SDS011;14583;43.604;1.364;2023-07-13T06:12:50;3.92;;;1.48;;
26407;SDS011;14583;43.604;1.364;2023-07-13T06:15:16;4.72;;;1.73;;
26407;SDS011;14583;43.604;1.364;2023-07-13T06:17:41;5.72;;;1.80;;
26407;SDS011;14583;43.604;1.364;2023-07-13T06:20:07;13.80;;;2.53;;
26407;SDS011;14583;43.604;1.364;2023-07-13T06:22:33;10.38;;;2.20;;
26407;SDS011;14583;43.604;1.364;2023-07-13T06:24:58;8.88;;;2.10;;
26407;SDS011;14583;43.604;1.364;2023-07-13T06:27:24;7.95;;;1.80;;
26407;SDS011;14583;43.604;1.364;2023-07-13T06:29:50;11.75;;;2.00;;
26407;SDS011;14583;43.604;1.364;2023-07-13T06:32:16;7.20;;;1.63;;
26407;SDS011;14583;43.604;1.364;2023-07-13T06:34:42;11.75;;;2.42;;
26407;SDS011;14583;43.604;1.364;2023-07-13T06:37:09;6.13;;;2.03;;
26407;SDS011;14583;43.604;1.364;2023-07-13T06:39:35;7.97;;;2.03;;
26407;SDS011;14583;43.604;1.364;2023-07-13T06:42:00;6.82;;;1.85;;
26407;SDS011;14583;43.604;1.364;2023-07-13T06:44:26;9.98;;;1.65;;
26407;SDS011;14583;43.604;1.364;2023-07-13T06:46:52;5.45;;;1.50;;
26407;SDS011;14583;43.604;1.364;2023-07-13T06:49:18;11.60;;;1.90;;
26407;SDS011;14583;43.604;1.364;2023-07-13T06:51:44;7.60;;;2.70;;
26407;SDS011;14583;43.604;1.364;2023-07-13T06:54:10;5.72;;;2.75;;
26407;SDS011;14583;43.604;1.364;2023-07-13T06:56:35;7.30;;;2.22;;
26407;SDS011;14583;43.604;1.364;2023-07-13T06:59:01;6.35;;;2.05;;
26407;SDS011;14583;43.604;1.364;2023-07-13T07:01:27;7.10;;;2.40;;
26407;SDS011;14583;43.604;1.364;2023-07-13T07:03:52;6.10;;;1.90;;
26407;SDS011;14583;43.604;1.364;2023-07-13T07:06:19;5.28;;;1.90;;
26407;SDS011;14583;43.604;1.364;2023-07-13T07:08:48;7.47;;;2.22;;
26407;SDS011;14583;43.604;1.364;2023-07-13T07:11:18;5.32;;;2.17;;
26407;SDS011;14583;43.604;1.364;2023-07-13T07:13:47;7.10;;;2.45;;
26407;SDS011;14583;43.604;1.364;2023-07-13T07:16:13;5.40;;;1.77;;
26407;SDS011;14583;43.604;1.364;2023-07-13T07:18:39;3.45;;;1.60;;
26407;SDS011;14583;43.604;1.364;2023-07-13T07:21:05;5.50;;;1.50;;
26407;SDS011;14583;43.604;1.364;2023-07-13T07:23:30;6.50;;;1.70;;
26407;SDS011;14583;43.604;1.364;2023-07-13T07:25:56;6.00;;;1.77;;
26407;SDS011;14583;43.604;1.364;2023-07-13T07:28:22;4.97;;;1.40;;
26407;SDS011;14583;43.604;1.364;2023-07-13T07:30:48;5.32;;;1.30;;
26407;SDS011;14583;43.604;1.364;2023-07-13T07:33:15;6.10;;;1.52;;
26407;SDS011;14583;43.604;1.364;2023-07-13T07:35:42;5.15;;;1.50;;
26407;SDS011;14583;43.604;1.364;2023-07-13T07:38:07;6.55;;;1.58;;
26407;SDS011;14583;43.604;1.364;2023-07-13T07:40:39;7.53;;;1.77;;
26407;SDS011;14583;43.604;1.364;2023-07-13T07:43:06;5.43;;;1.60;;
26407;SDS011;14583;43.604;1.364;2023-07-13T07:45:33;6.35;;;1.63;;
26407;SDS011;14583;43.604;1.364;2023-07-13T07:47:58;7.38;;;1.52;;
26407;SDS011;14583;43.604;1.364;2023-07-13T07:50:25;5.03;;;1.80;;
26407;SDS011;14583;43.604;1.364;2023-07-13T07:52:51;6.07;;;1.50;;
26407;SDS011;14583;43.604;1.364;2023-07-13T07:55:17;7.20;;;2.00;;
26407;SDS011;14583;43.604;1.364;2023-07-13T07:57:43;6.70;;;1.70;;
26407;SDS011;14583;43.604;1.364;2023-07-13T08:00:09;5.72;;;1.63;;
26407;SDS011;14583;43.604;1.364;2023-07-13T08:02:38;5.60;;;1.35;;
26407;SDS011;14583;43.604;1.364;2023-07-13T08:05:06;6.47;;;1.30;;
26407;SDS011;14583;43.604;1.364;2023-07-13T08:07:36;6.97;;;2.03;;
26407;SDS011;14583;43.604;1.364;2023-07-13T08:10:02;6.00;;;1.70;;
26407;SDS011;14583;43.604;1.364;2023-07-13T08:12:28;8.93;;;1.98;;
26407;SDS011;14583;43.604;1.364;2023-07-13T08:14:54;9.63;;;1.90;;
26407;SDS011;14583;43.604;1.364;2023-07-13T08:17:23;6.32;;;1.40;;
26407;SDS011;14583;43.604;1.364;2023-07-13T08:19:49;11.30;;;2.10;;
26407;SDS011;14583;43.604;1.364;2023-07-13T08:22:15;7.13;;;1.90;;
26407;SDS011;14583;43.604;1.364;2023-07-13T08:24:41;8.55;;;1.65;;
26407;SDS011;14583;43.604;1.364;2023-07-13T08:27:12;8.80;;;1.88;;
26407;SDS011;14583;43.604;1.364;2023-07-13T08:29:38;6.47;;;1.77;;
26407;SDS011;14583;43.604;1.364;2023-07-13T08:32:05;12.90;;;1.90;;
26407;SDS011;14583;43.604;1.364;2023-07-13T08:34:34;4.95;;;1.20;;
26407;SDS011;14583;43.604;1.364;2023-07-13T08:37:00;5.90;;;1.60;;
26407;SDS011;14583;43.604;1.364;2023-07-13T08:39:26;7.13;;;2.00;;
26407;SDS011;14583;43.604;1.364;2023-07-13T08:41:53;7.60;;;1.63;;
26407;SDS011;14583;43.604;1.364;2023-07-13T08:47:30;6.38;;;1.80;;
26407;SDS011;14583;43.604;1.364;2023-07-13T08:50:00;3.85;;;1.20;;
26407;SDS011;14583;43.604;1.364;2023-07-13T08:52:35;6.57;;;1.60;;
26407;SDS011;14583;43.604;1.364;2023-07-13T08:55:05;3.67;;;1.20;;
26407;SDS011;14583;43.604;1.364;2023-07-13T09:04:25;5.47;;;1.58;;
26407;SDS011;14583;43.604;1.364;2023-07-13T09:06:31;4.22;;;1.63;;
26407;SDS011;14583;43.604;1.364;2023-07-13T09:12:05;7.00;;;1.38;;
26407;SDS011;14583;43.604;1.364;2023-07-13T09:14:47;5.28;;;1.30;;
26407;SDS011;14583;43.604;1.364;2023-07-13T09:17:19;4.47;;;1.27;;
26407;SDS011;14583;43.604;1.364;2023-07-13T09:19:59;7.25;;;1.27;;
26407;SDS011;14583;43.604;1.364;2023-07-13T09:22:29;3.42;;;1.15;;
26407;SDS011;14583;43.604;1.364;2023-07-13T09:25:05;4.82;;;1.35;;
26407;SDS011;14583;43.604;1.364;2023-07-13T09:28:11;5.65;;;1.60;;
26407;SDS011;14583;43.604;1.364;2023-07-13T09:33:20;5.97;;;1.70;;
26407;SDS011;14583;43.604;1.364;2023-07-13T09:35:46;3.67;;;1.10;;
26407;SDS011;14583;43.604;1.364;2023-07-13T09:38:12;8.73;;;1.52;;
26407;SDS011;14583;43.604;1.364;2023-07-13T09:43:24;7.05;;;1.88;;
26407;SDS011;14583;43.604;1.364;2023-07-13T09:45:50;7.07;;;1.40;;
26407;SDS011;14583;43.604;1.364;2023-07-13T09:48:17;4.80;;;1.25;;
26407;SDS011;14583;43.604;1.364;2023-07-13T09:50:43;3.97;;;1.17;;
26407;SDS011;14583;43.604;1.364;2023-07-13T09:53:17;2.60;;;1.02;;
26407;SDS011;14583;43.604;1.364;2023-07-13T09:55:45;5.32;;;1.63;;
26407;SDS011;14583;43.604;1.364;2023-07-13T09:58:14;3.50;;;1.50;;
26407;SDS011;14583;43.604;1.364;2023-07-13T10:00:40;6.10;;;1.42;;
26407;SDS011;14583;43.604;1.364;2023-07-13T10:03:19;8.15;;;2.15;;
26407;SDS011;14583;43.604;1.364;2023-07-13T10:05:48;5.95;;;1.42;;
26407;SDS011;14583;43.604;1.364;2023-07-13T10:08:26;6.25;;;1.63;;
26407;SDS011;14583;43.604;1.364;2023-07-13T10:11:01;6.55;;;1.60;;
26407;SDS011;14583;43.604;1.364;2023-07-13T10:16:20;15.63;;;1.70;;
26407;SDS011;14583;43.604;1.364;2023-07-13T10:18:55;3.88;;;1.42;;
26407;SDS011;14583;43.604;1.364;2023-07-13T10:21:26;3.03;;;1.40;;
26407;SDS011;14583;43.604;1.364;2023-07-13T10:29:43;4.50;;;1.65;;
26407;SDS011;14583;43.604;1.364;2023-07-13T10:32:13;5.78;;;1.65;;
26407;SDS011;14583;43.604;1.364;2023-07-13T10:34:40;4.82;;;1.50;;
26407;SDS011;14583;43.604;1.364;2023-07-13T10:37:15;5.70;;;1.73;;
26407;SDS011;14583;43.604;1.364;2023-07-13T10:39:45;5.22;;;1.42;;
26407;SDS011;14583;43.604;1.364;2023-07-13T10:42:13;5.63;;;1.63;;
26407;SDS011;14583;43.604;1.364;2023-07-13T10:44:49;4.47;;;1.50;;
26407;SDS011;14583;43.604;1.364;2023-07-13T10:47:15;3.75;;;1.77;;
26407;SDS011;14583;43.604;1.364;2023-07-13T10:49:43;8.07;;;1.65;;
26407;SDS011;14583;43.604;1.364;2023-07-13T10:55:30;6.50;;;1.60;;
26407;SDS011;14583;43.604;1.364;2023-07-13T11:01:17;4.83;;;1.30;;
26407;SDS011;14583;43.604;1.364;2023-07-13T11:13:55;4.15;;;1.65;;
26407;SDS011;14583;43.604;1.364;2023-07-13T11:21:28;7.95;;;1.60;;
26407;SDS011;14583;43.604;1.364;2023-07-13T11:24:13;4.82;;;1.30;;
26407;SDS011;14583;43.604;1.364;2023-07-13T11:31:54;2.72;;;1.40;;
26407;SDS011;14583;43.604;1.364;2023-07-13T11:34:25;4.63;;;1.13;;
26407;SDS011;14583;43.604;1.364;2023-07-13T11:36:55;7.57;;;1.42;;
26407;SDS011;14583;43.604;1.364;2023-07-13T11:39:28;3.38;;;1.30;;
26407;SDS011;14583;43.604;1.364;2023-07-13T11:42:03;4.93;;;1.42;;
26407;SDS011;14583;43.604;1.364;2023-07-13T11:44:32;3.80;;;1.38;;
26407;SDS011;14583;43.604;1.364;2023-07-13T11:47:00;1.90;;;1.23;;
26407;SDS011;14583;43.604;1.364;2023-07-13T11:49:44;5.35;;;1.38;;
26407;SDS011;14583;43.604;1.364;2023-07-13T11:52:17;4.30;;;1.42;;
26407;SDS011;14583;43.604;1.364;2023-07-13T11:54:51;8.13;;;1.80;;
26407;SDS011;14583;43.604;1.364;2023-07-13T12:00:00;4.38;;;1.48;;
26407;SDS011;14583;43.604;1.364;2023-07-13T12:02:32;6.15;;;1.60;;
26407;SDS011;14583;43.604;1.364;2023-07-13T12:05:02;2.95;;;1.45;;
26407;SDS011;14583;43.604;1.364;2023-07-13T12:07:31;6.65;;;1.70;;
26407;SDS011;14583;43.604;1.364;2023-07-13T12:12:50;3.78;;;1.40;;
26407;SDS011;14583;43.604;1.364;2023-07-13T12:15:18;3.95;;;1.50;;
26407;SDS011;14583;43.604;1.364;2023-07-13T12:17:47;6.15;;;1.40;;
26407;SDS011;14583;43.604;1.364;2023-07-13T12:20:20;4.10;;;1.60;;
26407;SDS011;14583;43.604;1.364;2023-07-13T12:22:49;7.10;;;2.00;;
26407;SDS011;14583;43.604;1.364;2023-07-13T12:25:16;6.38;;;1.50;;
26407;SDS011;14583;43.604;1.364;2023-07-13T12:27:46;4.78;;;1.50;;
26407;SDS011;14583;43.604;1.364;2023-07-13T12:32:55;4.30;;;1.60;;
26407;SDS011;14583;43.604;1.364;2023-07-13T12:35:47;7.68;;;1.60;;
26407;SDS011;14583;43.604;1.364;2023-07-13T12:38:15;4.80;;;1.52;;
26407;SDS011;14583;43.604;1.364;2023-07-13T12:40:42;3.50;;;1.30;;
26407;SDS011;14583;43.604;1.364;2023-07-13T12:43:11;4.40;;;1.30;;
26407;SDS011;14583;43.604;1.364;2023-07-13T12:45:38;3.00;;;1.42;;
26407;SDS011;14583;43.604;1.364;2023-07-13T12:48:05;7.03;;;1.63;;
26407;SDS011;14583;43.604;1.364;2023-07-13T12:50:40;2.50;;;1.23;;
26407;SDS011;14583;43.604;1.364;2023-07-13T12:53:12;5.15;;;1.30;;
26407;SDS011;14583;43.604;1.364;2023-07-13T12:55:50;6.63;;;1.35;;
26407;SDS011;14583;43.604;1.364;2023-07-13T13:01:02;7.63;;;1.33;;
26407;SDS011;14583;43.604;1.364;2023-07-13T13:03:35;4.78;;;1.30;;
26407;SDS011;14583;43.604;1.364;2023-07-13T13:06:17;3.42;;;1.60;;
26407;SDS011;14583;43.604;1.364;2023-07-13T13:08:54;3.90;;;1.50;;
26407;SDS011;14583;43.604;1.364;2023-07-13T13:11:25;4.88;;;1.55;;
26407;SDS011;14583;43.604;1.364;2023-07-13T13:13:52;4.68;;;1.55;;
26407;SDS011;14583;43.604;1.364;2023-07-13T13:16:22;4.72;;;1.30;;
26407;SDS011;14583;43.604;1.364;2023-07-13T13:19:19;4.05;;;1.38;;
26407;SDS011;14583;43.604;1.364;2023-07-13T13:21:50;2.28;;;1.10;;
26407;SDS011;14583;43.604;1.364;2023-07-13T13:24:19;4.50;;;1.40;;
26407;SDS011;14583;43.604;1.364;2023-07-13T13:26:46;5.03;;;1.27;;
26407;SDS011;14583;43.604;1.364;2023-07-13T13:29:17;3.88;;;1.50;;
26407;SDS011;14583;43.604;1.364;2023-07-13T13:31:45;4.35;;;1.60;;
26407;SDS011;14583;43.604;1.364;2023-07-13T13:34:12;4.05;;;1.10;;
26407;SDS011;14583;43.604;1.364;2023-07-13T13:36:41;2.88;;;1.20;;
26407;SDS011;14583;43.604;1.364;2023-07-13T13:39:29;5.50;;;1.30;;
26407;SDS011;14583;43.604;1.364;2023-07-13T13:41:59;2.85;;;1.23;;
26407;SDS011;14583;43.604;1.364;2023-07-13T13:44:25;4.05;;;1.30;;
26407;SDS011;14583;43.604;1.364;2023-07-13T13:46:51;4.47;;;1.48;;
26407;SDS011;14583;43.604;1.364;2023-07-13T13:49:21;5.55;;;1.45;;
26407;SDS011;14583;43.604;1.364;2023-07-13T13:51:48;6.05;;;1.40;;
26407;SDS011;14583;43.604;1.364;2023-07-13T13:54:15;4.60;;;1.40;;
26407;SDS011;14583;43.604;1.364;2023-07-13T13:56:42;3.92;;;1.20;;
26407;SDS011;14583;43.604;1.364;2023-07-13T13:59:09;3.85;;;1.30;;
26407;SDS011;14583;43.604;1.364;2023-07-13T14:01:35;4.75;;;1.20;;
26407;SDS011;14583;43.604;1.364;2023-07-13T14:04:02;5.43;;;1.40;;
26407;SDS011;14583;43.604;1.364;2023-07-13T14:06:28;4.18;;;1.60;;
26407;SDS011;14583;43.604;1.364;2023-07-13T14:08:54;4.28;;;1.25;;
26407;SDS011;14583;43.604;1.364;2023-07-13T14:11:21;2.95;;;1.42;;
26407;SDS011;14583;43.604;1.364;2023-07-13T14:13:48;2.20;;;1.17;;
26407;SDS011;14583;43.604;1.364;2023-07-13T14:16:26;10.82;;;1.20;;
26407;SDS011;14583;43.604;1.364;2023-07-13T14:18:54;4.90;;;1.55;;
26407;SDS011;14583;43.604;1.364;2023-07-13T14:21:23;3.60;;;1.30;;
26407;SDS011;14583;43.604;1.364;2023-07-13T14:23:49;1.83;;;1.10;;
26407;SDS011;14583;43.604;1.364;2023-07-13T14:28:55;3.50;;;1.75;;
26407;SDS011;14583;43.604;1.364;2023-07-13T14:31:22;3.13;;;1.20;;
26407;SDS011;14583;43.604;1.364;2023-07-13T14:33:49;4.30;;;1.30;;
26407;SDS011;14583;43.604;1.364;2023-07-13T14:38:56;3.33;;;1.40;;
26407;SDS011;14583;43.604;1.364;2023-07-13T14:41:22;4.97;;;1.00;;
26407;SDS011;14583;43.604;1.364;2023-07-13T14:43:49;5.05;;;1.27;;
26407;SDS011;14583;43.604;1.364;2023-07-13T14:46:48;4.78;;;1.17;;
26407;SDS011;14583;43.604;1.364;2023-07-13T14:51:57;2.85;;;1.20;;
26407;SDS011;14583;43.604;1.364;2023-07-13T14:54:24;3.45;;;1.15;;
26407;SDS011;14583;43.604;1.364;2023-07-13T14:56:50;3.83;;;1.30;;
26407;SDS011;14583;43.604;1.364;2023-07-13T14:59:15;2.85;;;1.30;;
26407;SDS011;14583;43.604;1.364;2023-07-13T15:01:43;3.15;;;1.02;;
26407;SDS011;14583;43.604;1.364;2023-07-13T15:04:10;4.95;;;1.35;;
26407;SDS011;14583;43.604;1.364;2023-07-13T15:06:56;2.83;;;1.23;;
26407;SDS011;14583;43.604;1.364;2023-07-13T15:09:24;4.43;;;1.48;;
26407;SDS011;14583;43.604;1.364;2023-07-13T15:11:57;3.45;;;1.20;;
26407;SDS011;14583;43.604;1.364;2023-07-13T15:14:24;2.53;;;1.13;;
26407;SDS011;14583;43.604;1.364;2023-07-13T15:16:51;4.25;;;1.98;;
26407;SDS011;14583;43.604;1.364;2023-07-13T15:19:18;4.47;;;2.30;;
26407;SDS011;14583;43.604;1.364;2023-07-13T15:21:46;3.45;;;1.35;;
26407;SDS011;14583;43.604;1.364;2023-07-13T15:24:12;7.68;;;1.60;;
26407;SDS011;14583;43.604;1.364;2023-07-13T15:26:39;2.45;;;1.20;;
26407;SDS011;14583;43.604;1.364;2023-07-13T15:29:04;2.88;;;1.60;;
26407;SDS011;14583;43.604;1.364;2023-07-13T15:31:31;2.97;;;1.40;;
26407;SDS011;14583;43.604;1.364;2023-07-13T15:33:58;3.80;;;1.38;;
26407;SDS011;14583;43.604;1.364;2023-07-13T15:36:25;4.38;;;1.35;;
26407;SDS011;14583;43.604;1.364;2023-07-13T15:38:52;4.93;;;1.70;;
26407;SDS011;14583;43.604;1.364;2023-07-13T15:41:20;2.47;;;1.25;;
26407;SDS011;14583;43.604;1.364;2023-07-13T15:43:48;2.58;;;1.10;;
26407;SDS011;14583;43.604;1.364;2023-07-13T15:46:16;3.75;;;1.27;;
26407;SDS011;14583;43.604;1.364;2023-07-13T15:48:43;5.93;;;1.80;;
26407;SDS011;14583;43.604;1.364;2023-07-13T15:51:11;3.67;;;1.80;;
26407;SDS011;14583;43.604;1.364;2023-07-13T15:53:43;3.78;;;1.40;;
26407;SDS011;14583;43.604;1.364;2023-07-13T15:56:19;3.03;;;1.40;;
26407;SDS011;14583;43.604;1.364;2023-07-13T15:58:47;6.00;;;1.90;;
26407;SDS011;14583;43.604;1.364;2023-07-13T16:01:13;3.38;;;1.50;;
26407;SDS011;14583;43.604;1.364;2023-07-13T16:03:39;3.63;;;1.60;;
26407;SDS011;14583;43.604;1.364;2023-07-13T16:06:17;7.18;;;1.50;;
26407;SDS011;14583;43.604;1.364;2023-07-13T16:08:47;8.38;;;2.55;;